sensor_id;sensor_type;location;lat;lon;timestamp;P1;durP1;ratioP1;P2;durP2;ratioP2
13415;SDS011;6779;50.150;8.680;2024-03-22T00:01:50;14.17;;;11.07;;
13415;SDS011;6779;50.150;8.680;2024-03-22T00:04:16;14.27;;;10.73;;
13415;SDS011;6779;50.150;8.680;2024-03-22T00:06:42;15.63;;;11.17;;
13415;SDS011;6779;50.150;8.680;2024-03-22T00:09:08;14.87;;;11.10;;
13415;SDS011;6779;50.150;8.680;2024-03-22T00:11:33;16.70;;;11.23;;
13415;SDS011;6779;50.150;8.680;2024-03-22T00:13:59;15.50;;;11.27;;
13415;SDS011;6779;50.150;8.680;2024-03-22T00:16:24;14.83;;;12.17;;
13415;SDS011;6779;50.150;8.680;2024-03-22T00:18:49;17.20;;;11.00;;
13415;SDS011;6779;50.150;8.680;2024-03-22T00:21:15;13.93;;;10.53;;
13415;SDS011;6779;50.150;8.680;2024-03-22T00:23:40;16.37;;;11.47;;
13415;SDS011;6779;50.150;8.680;2024-03-22T00:26:07;15.40;;;11.10;;
13415;SDS011;6779;50.150;8.680;2024-03-22T00:28:32;17.73;;;11.90;;
13415;SDS011;6779;50.150;8.680;2024-03-22T00:30:58;14.67;;;11.67;;
13415;SDS011;6779;50.150;8.680;2024-03-22T00:33:23;15.67;;;11.60;;
13415;SDS011;6779;50.150;8.680;2024-03-22T00:35:48;17.77;;;12.33;;
13415;SDS011;6779;50.150;8.680;2024-03-22T00:38:14;17.60;;;11.37;;
13415;SDS011;6779;50.150;8.680;2024-03-22T00:40:39;14.23;;;10.93;;
13415;SDS011;6779;50.150;8.680;2024-03-22T00:43:04;14.40;;;10.77;;
13415;SDS011;6779;50.150;8.680;2024-03-22T00:45:29;18.40;;;11.97;;
13415;SDS011;6779;50.150;8.680;2024-03-22T00:47:55;15.67;;;11.47;;
13415;SDS011;6779;50.150;8.680;2024-03-22T00:50:20;19.13;;;12.60;;
13415;SDS011;6779;50.150;8.680;2024-03-22T00:52:46;17.37;;;12.43;;
13415;SDS011;6779;50.150;8.680;2024-03-22T00:55:11;17.17;;;12.70;;
13415;SDS011;6779;50.150;8.680;2024-03-22T00:57:36;22.77;;;13.30;;
13415;SDS011;6779;50.150;8.680;2024-03-22T01:00:02;19.60;;;14.03;;
13415;SDS011;6779;50.150;8.680;2024-03-22T01:02:27;18.73;;;12.97;;
13415;SDS011;6779;50.150;8.680;2024-03-22T01:04:53;21.77;;;14.23;;
13415;SDS011;6779;50.150;8.680;2024-03-22T01:07:18;19.20;;;13.77;;
13415;SDS011;6779;50.150;8.680;2024-03-22T01:09:43;20.20;;;13.50;;
13415;SDS011;6779;50.150;8.680;2024-03-22T01:12:09;21.23;;;14.77;;
13415;SDS011;6779;50.150;8.680;2024-03-22T01:14:35;26.03;;;15.37;;
13415;SDS011;6779;50.150;8.680;2024-03-22T01:17:00;21.73;;;14.33;;
13415;SDS011;6779;50.150;8.680;2024-03-22T01:19:26;22.83;;;15.37;;
13415;SDS011;6779;50.150;8.680;2024-03-22T01:21:51;21.77;;;15.07;;
13415;SDS011;6779;50.150;8.680;2024-03-22T01:24:16;22.10;;;15.20;;
13415;SDS011;6779;50.150;8.680;2024-03-22T01:26:41;23.57;;;14.83;;
13415;SDS011;6779;50.150;8.680;2024-03-22T01:29:07;23.50;;;14.27;;
13415;SDS011;6779;50.150;8.680;2024-03-22T01:31:32;24.33;;;14.80;;
13415;SDS011;6779;50.150;8.680;2024-03-22T01:33:58;20.77;;;15.27;;
13415;SDS011;6779;50.150;8.680;2024-03-22T01:36:23;19.77;;;13.83;;
13415;SDS011;6779;50.150;8.680;2024-03-22T01:38:48;21.40;;;14.77;;
13415;SDS011;6779;50.150;8.680;2024-03-22T01:41:13;22.43;;;14.13;;
13415;SDS011;6779;50.150;8.680;2024-03-22T01:43:39;26.23;;;14.73;;
13415;SDS011;6779;50.150;8.680;2024-03-22T01:46:05;22.87;;;14.57;;
13415;SDS011;6779;50.150;8.680;2024-03-22T01:48:32;21.07;;;14.70;;
13415;SDS011;6779;50.150;8.680;2024-03-22T01:50:58;23.33;;;15.67;;
13415;SDS011;6779;50.150;8.680;2024-03-22T01:53:24;24.77;;;16.07;;
13415;SDS011;6779;50.150;8.680;2024-03-22T01:55:49;24.93;;;16.43;;
13415;SDS011;6779;50.150;8.680;2024-03-22T01:58:14;21.20;;;15.03;;
13415;SDS011;6779;50.150;8.680;2024-03-22T02:00:40;23.10;;;15.97;;
13415;SDS011;6779;50.150;8.680;2024-03-22T02:03:05;24.07;;;15.27;;
13415;SDS011;6779;50.150;8.680;2024-03-22T02:05:31;21.17;;;14.93;;
13415;SDS011;6779;50.150;8.680;2024-03-22T02:07:56;20.23;;;14.43;;
13415;SDS011;6779;50.150;8.680;2024-03-22T02:10:22;21.03;;;14.93;;
13415;SDS011;6779;50.150;8.680;2024-03-22T02:12:47;21.40;;;14.83;;
13415;SDS011;6779;50.150;8.680;2024-03-22T02:15:12;22.13;;;16.13;;
13415;SDS011;6779;50.150;8.680;2024-03-22T02:17:37;23.97;;;16.27;;
13415;SDS011;6779;50.150;8.680;2024-03-22T02:20:03;23.77;;;15.67;;
13415;SDS011;6779;50.150;8.680;2024-03-22T02:22:29;23.53;;;16.53;;
13415;SDS011;6779;50.150;8.680;2024-03-22T02:24:55;27.33;;;17.53;;
13415;SDS011;6779;50.150;8.680;2024-03-22T02:27:20;28.83;;;18.73;;
13415;SDS011;6779;50.150;8.680;2024-03-22T02:29:46;26.80;;;17.40;;
13415;SDS011;6779;50.150;8.680;2024-03-22T02:32:11;27.23;;;17.37;;
13415;SDS011;6779;50.150;8.680;2024-03-22T02:34:36;25.70;;;17.37;;
13415;SDS011;6779;50.150;8.680;2024-03-22T02:37:02;24.33;;;16.60;;
13415;SDS011;6779;50.150;8.680;2024-03-22T02:39:27;24.87;;;17.07;;
13415;SDS011;6779;50.150;8.680;2024-03-22T02:41:53;24.93;;;17.07;;
13415;SDS011;6779;50.150;8.680;2024-03-22T02:44:18;23.97;;;16.30;;
13415;SDS011;6779;50.150;8.680;2024-03-22T02:46:44;23.77;;;15.13;;
13415;SDS011;6779;50.150;8.680;2024-03-22T02:49:09;24.10;;;16.47;;
13415;SDS011;6779;50.150;8.680;2024-03-22T02:51:34;23.43;;;15.40;;
13415;SDS011;6779;50.150;8.680;2024-03-22T02:54:00;23.90;;;16.17;;
13415;SDS011;6779;50.150;8.680;2024-03-22T02:56:27;21.90;;;15.57;;
13415;SDS011;6779;50.150;8.680;2024-03-22T02:58:52;23.70;;;15.30;;
13415;SDS011;6779;50.150;8.680;2024-03-22T03:01:17;21.60;;;14.83;;
13415;SDS011;6779;50.150;8.680;2024-03-22T03:03:43;25.83;;;16.93;;
13415;SDS011;6779;50.150;8.680;2024-03-22T03:06:08;27.77;;;16.70;;
13415;SDS011;6779;50.150;8.680;2024-03-22T03:08:34;22.23;;;15.60;;
13415;SDS011;6779;50.150;8.680;2024-03-22T03:10:59;29.33;;;17.80;;
13415;SDS011;6779;50.150;8.680;2024-03-22T03:13:25;25.47;;;17.37;;
13415;SDS011;6779;50.150;8.680;2024-03-22T03:15:51;25.53;;;15.97;;
13415;SDS011;6779;50.150;8.680;2024-03-22T03:18:16;22.53;;;15.03;;
13415;SDS011;6779;50.150;8.680;2024-03-22T03:20:41;22.17;;;14.70;;
13415;SDS011;6779;50.150;8.680;2024-03-22T03:23:06;19.73;;;14.90;;
13415;SDS011;6779;50.150;8.680;2024-03-22T03:25:32;23.07;;;14.80;;
13415;SDS011;6779;50.150;8.680;2024-03-22T03:27:57;20.53;;;13.77;;
13415;SDS011;6779;50.150;8.680;2024-03-22T03:30:22;20.60;;;15.17;;
13415;SDS011;6779;50.150;8.680;2024-03-22T03:32:48;23.83;;;15.60;;
13415;SDS011;6779;50.150;8.680;2024-03-22T03:35:13;26.63;;;16.50;;
13415;SDS011;6779;50.150;8.680;2024-03-22T03:37:38;25.23;;;16.87;;
13415;SDS011;6779;50.150;8.680;2024-03-22T03:40:04;25.60;;;16.97;;
13415;SDS011;6779;50.150;8.680;2024-03-22T03:42:29;26.30;;;17.10;;
13415;SDS011;6779;50.150;8.680;2024-03-22T03:44:55;30.63;;;17.53;;
13415;SDS011;6779;50.150;8.680;2024-03-22T03:47:20;28.37;;;17.23;;
13415;SDS011;6779;50.150;8.680;2024-03-22T03:49:46;27.67;;;16.73;;
13415;SDS011;6779;50.150;8.680;2024-03-22T03:52:11;29.10;;;17.70;;
13415;SDS011;6779;50.150;8.680;2024-03-22T03:54:36;28.93;;;18.53;;
13415;SDS011;6779;50.150;8.680;2024-03-22T03:57:02;28.23;;;17.80;;
13415;SDS011;6779;50.150;8.680;2024-03-22T03:59:27;28.40;;;18.60;;
13415;SDS011;6779;50.150;8.680;2024-03-22T04:01:52;24.73;;;16.73;;
13415;SDS011;6779;50.150;8.680;2024-03-22T04:04:18;23.77;;;15.37;;
13415;SDS011;6779;50.150;8.680;2024-03-22T04:06:46;25.27;;;16.57;;
13415;SDS011;6779;50.150;8.680;2024-03-22T04:09:11;22.73;;;15.27;;
13415;SDS011;6779;50.150;8.680;2024-03-22T04:11:37;26.70;;;16.60;;
13415;SDS011;6779;50.150;8.680;2024-03-22T04:14:02;24.23;;;14.80;;
13415;SDS011;6779;50.150;8.680;2024-03-22T04:16:28;26.13;;;16.73;;
13415;SDS011;6779;50.150;8.680;2024-03-22T04:18:53;26.30;;;16.73;;
13415;SDS011;6779;50.150;8.680;2024-03-22T04:21:18;25.90;;;16.40;;
13415;SDS011;6779;50.150;8.680;2024-03-22T04:23:44;28.13;;;17.23;;
13415;SDS011;6779;50.150;8.680;2024-03-22T04:26:09;26.90;;;16.83;;
13415;SDS011;6779;50.150;8.680;2024-03-22T04:28:34;27.27;;;17.87;;
13415;SDS011;6779;50.150;8.680;2024-03-22T04:31:00;31.07;;;19.40;;
13415;SDS011;6779;50.150;8.680;2024-03-22T04:33:27;27.57;;;17.43;;
13415;SDS011;6779;50.150;8.680;2024-03-22T04:35:53;29.30;;;17.67;;
13415;SDS011;6779;50.150;8.680;2024-03-22T04:38:19;35.63;;;19.77;;
13415;SDS011;6779;50.150;8.680;2024-03-22T04:40:44;33.50;;;21.07;;
13415;SDS011;6779;50.150;8.680;2024-03-22T04:43:09;32.47;;;18.77;;
13415;SDS011;6779;50.150;8.680;2024-03-22T04:45:35;27.90;;;18.13;;
13415;SDS011;6779;50.150;8.680;2024-03-22T04:48:03;26.87;;;17.77;;
13415;SDS011;6779;50.150;8.680;2024-03-22T04:50:32;27.60;;;16.37;;
13415;SDS011;6779;50.150;8.680;2024-03-22T04:52:57;23.13;;;15.67;;
13415;SDS011;6779;50.150;8.680;2024-03-22T04:55:22;25.57;;;16.23;;
13415;SDS011;6779;50.150;8.680;2024-03-22T04:57:48;29.67;;;17.50;;
13415;SDS011;6779;50.150;8.680;2024-03-22T05:00:13;28.63;;;16.53;;
13415;SDS011;6779;50.150;8.680;2024-03-22T05:02:39;25.93;;;16.27;;
13415;SDS011;6779;50.150;8.680;2024-03-22T05:05:05;24.70;;;16.07;;
13415;SDS011;6779;50.150;8.680;2024-03-22T05:07:30;26.23;;;17.23;;
13415;SDS011;6779;50.150;8.680;2024-03-22T05:09:55;26.87;;;17.37;;
13415;SDS011;6779;50.150;8.680;2024-03-22T05:12:21;28.87;;;18.83;;
13415;SDS011;6779;50.150;8.680;2024-03-22T05:14:46;31.20;;;18.87;;
13415;SDS011;6779;50.150;8.680;2024-03-22T05:17:12;29.97;;;19.03;;
13415;SDS011;6779;50.150;8.680;2024-03-22T05:19:37;29.43;;;20.07;;
13415;SDS011;6779;50.150;8.680;2024-03-22T05:22:02;26.40;;;17.90;;
13415;SDS011;6779;50.150;8.680;2024-03-22T05:24:28;25.97;;;17.13;;
13415;SDS011;6779;50.150;8.680;2024-03-22T05:26:53;28.47;;;18.30;;
13415;SDS011;6779;50.150;8.680;2024-03-22T05:29:18;25.70;;;16.43;;
13415;SDS011;6779;50.150;8.680;2024-03-22T05:31:47;25.70;;;17.00;;
13415;SDS011;6779;50.150;8.680;2024-03-22T05:34:13;22.90;;;16.00;;
13415;SDS011;6779;50.150;8.680;2024-03-22T05:36:39;25.77;;;17.10;;
13415;SDS011;6779;50.150;8.680;2024-03-22T05:39:05;28.90;;;17.00;;
13415;SDS011;6779;50.150;8.680;2024-03-22T05:41:30;24.47;;;15.97;;
13415;SDS011;6779;50.150;8.680;2024-03-22T05:43:55;25.53;;;16.20;;
13415;SDS011;6779;50.150;8.680;2024-03-22T05:46:21;23.60;;;16.17;;
13415;SDS011;6779;50.150;8.680;2024-03-22T05:48:46;28.70;;;16.70;;
13415;SDS011;6779;50.150;8.680;2024-03-22T05:51:13;24.90;;;15.90;;
13415;SDS011;6779;50.150;8.680;2024-03-22T05:53:38;22.07;;;15.13;;
13415;SDS011;6779;50.150;8.680;2024-03-22T05:56:04;21.87;;;15.70;;
13415;SDS011;6779;50.150;8.680;2024-03-22T05:58:29;24.07;;;15.73;;
13415;SDS011;6779;50.150;8.680;2024-03-22T06:00:55;25.50;;;16.47;;
13415;SDS011;6779;50.150;8.680;2024-03-22T06:03:20;25.03;;;15.87;;
13415;SDS011;6779;50.150;8.680;2024-03-22T06:05:46;26.37;;;16.00;;
13415;SDS011;6779;50.150;8.680;2024-03-22T06:08:12;24.60;;;15.63;;
13415;SDS011;6779;50.150;8.680;2024-03-22T06:10:37;24.30;;;16.50;;
13415;SDS011;6779;50.150;8.680;2024-03-22T06:13:02;24.00;;;16.47;;
13415;SDS011;6779;50.150;8.680;2024-03-22T06:15:28;24.73;;;15.33;;
13415;SDS011;6779;50.150;8.680;2024-03-22T06:17:53;24.63;;;16.27;;
13415;SDS011;6779;50.150;8.680;2024-03-22T06:20:18;24.57;;;15.87;;
13415;SDS011;6779;50.150;8.680;2024-03-22T06:22:44;24.10;;;15.33;;
13415;SDS011;6779;50.150;8.680;2024-03-22T06:25:09;25.43;;;15.73;;
13415;SDS011;6779;50.150;8.680;2024-03-22T06:27:34;24.40;;;15.87;;
13415;SDS011;6779;50.150;8.680;2024-03-22T06:29:59;22.70;;;16.20;;
13415;SDS011;6779;50.150;8.680;2024-03-22T06:32:25;24.23;;;15.20;;
13415;SDS011;6779;50.150;8.680;2024-03-22T06:34:50;23.20;;;15.13;;
13415;SDS011;6779;50.150;8.680;2024-03-22T06:37:15;22.90;;;14.63;;
13415;SDS011;6779;50.150;8.680;2024-03-22T06:39:41;21.43;;;14.60;;
13415;SDS011;6779;50.150;8.680;2024-03-22T06:42:06;24.50;;;15.03;;
13415;SDS011;6779;50.150;8.680;2024-03-22T06:44:31;23.10;;;14.83;;
13415;SDS011;6779;50.150;8.680;2024-03-22T06:46:57;22.83;;;15.60;;
13415;SDS011;6779;50.150;8.680;2024-03-22T06:49:22;22.47;;;15.03;;
13415;SDS011;6779;50.150;8.680;2024-03-22T06:51:47;23.07;;;14.97;;
13415;SDS011;6779;50.150;8.680;2024-03-22T06:54:12;22.80;;;14.70;;
13415;SDS011;6779;50.150;8.680;2024-03-22T06:56:38;21.37;;;14.57;;
13415;SDS011;6779;50.150;8.680;2024-03-22T06:59:03;24.17;;;16.37;;
13415;SDS011;6779;50.150;8.680;2024-03-22T07:01:28;22.93;;;14.67;;
13415;SDS011;6779;50.150;8.680;2024-03-22T07:03:54;23.03;;;15.53;;
13415;SDS011;6779;50.150;8.680;2024-03-22T07:06:19;21.80;;;14.93;;
13415;SDS011;6779;50.150;8.680;2024-03-22T07:08:45;20.80;;;14.10;;
13415;SDS011;6779;50.150;8.680;2024-03-22T07:11:10;24.73;;;15.37;;
13415;SDS011;6779;50.150;8.680;2024-03-22T07:13:36;21.27;;;14.17;;
13415;SDS011;6779;50.150;8.680;2024-03-22T07:16:02;20.23;;;13.57;;
13415;SDS011;6779;50.150;8.680;2024-03-22T07:18:28;24.60;;;14.17;;
13415;SDS011;6779;50.150;8.680;2024-03-22T07:20:53;20.03;;;14.53;;
13415;SDS011;6779;50.150;8.680;2024-03-22T07:23:18;19.50;;;13.57;;
13415;SDS011;6779;50.150;8.680;2024-03-22T07:25:44;26.23;;;13.97;;
13415;SDS011;6779;50.150;8.680;2024-03-22T07:28:10;24.37;;;15.10;;
13415;SDS011;6779;50.150;8.680;2024-03-22T07:30:36;23.10;;;14.63;;
13415;SDS011;6779;50.150;8.680;2024-03-22T07:33:02;21.93;;;13.97;;
13415;SDS011;6779;50.150;8.680;2024-03-22T07:35:27;24.53;;;15.73;;
13415;SDS011;6779;50.150;8.680;2024-03-22T07:37:53;22.93;;;14.93;;
13415;SDS011;6779;50.150;8.680;2024-03-22T07:40:18;24.67;;;14.90;;
13415;SDS011;6779;50.150;8.680;2024-03-22T07:42:45;23.43;;;16.03;;
13415;SDS011;6779;50.150;8.680;2024-03-22T07:45:10;23.60;;;15.00;;
13415;SDS011;6779;50.150;8.680;2024-03-22T07:47:35;25.40;;;14.47;;
13415;SDS011;6779;50.150;8.680;2024-03-22T07:50:02;23.57;;;14.27;;
13415;SDS011;6779;50.150;8.680;2024-03-22T07:52:27;24.70;;;15.17;;
13415;SDS011;6779;50.150;8.680;2024-03-22T07:54:53;22.07;;;15.37;;
13415;SDS011;6779;50.150;8.680;2024-03-22T07:57:18;23.87;;;15.57;;
13415;SDS011;6779;50.150;8.680;2024-03-22T07:59:45;19.60;;;14.53;;
13415;SDS011;6779;50.150;8.680;2024-03-22T08:02:10;22.50;;;14.90;;
13415;SDS011;6779;50.150;8.680;2024-03-22T08:04:35;19.40;;;14.57;;
13415;SDS011;6779;50.150;8.680;2024-03-22T08:07:01;23.23;;;14.50;;
13415;SDS011;6779;50.150;8.680;2024-03-22T08:09:26;23.07;;;14.70;;
13415;SDS011;6779;50.150;8.680;2024-03-22T08:11:51;25.03;;;14.23;;
13415;SDS011;6779;50.150;8.680;2024-03-22T08:14:17;20.47;;;13.97;;
13415;SDS011;6779;50.150;8.680;2024-03-22T08:16:42;22.97;;;14.37;;
13415;SDS011;6779;50.150;8.680;2024-03-22T08:19:07;20.20;;;13.37;;
13415;SDS011;6779;50.150;8.680;2024-03-22T08:21:33;20.70;;;13.77;;
13415;SDS011;6779;50.150;8.680;2024-03-22T08:23:58;21.93;;;14.10;;
13415;SDS011;6779;50.150;8.680;2024-03-22T08:26:23;21.37;;;12.97;;
13415;SDS011;6779;50.150;8.680;2024-03-22T08:28:49;20.00;;;13.33;;
13415;SDS011;6779;50.150;8.680;2024-03-22T08:31:14;18.00;;;12.77;;
13415;SDS011;6779;50.150;8.680;2024-03-22T08:33:40;20.90;;;11.83;;
13415;SDS011;6779;50.150;8.680;2024-03-22T08:36:05;20.20;;;13.40;;
13415;SDS011;6779;50.150;8.680;2024-03-22T08:38:31;19.73;;;13.13;;
13415;SDS011;6779;50.150;8.680;2024-03-22T08:40:56;26.83;;;12.53;;
13415;SDS011;6779;50.150;8.680;2024-03-22T08:43:22;18.63;;;11.80;;
13415;SDS011;6779;50.150;8.680;2024-03-22T08:45:50;17.40;;;11.50;;
13415;SDS011;6779;50.150;8.680;2024-03-22T08:48:15;18.50;;;12.00;;
13415;SDS011;6779;50.150;8.680;2024-03-22T08:50:44;19.23;;;11.37;;
13415;SDS011;6779;50.150;8.680;2024-03-22T08:53:10;16.93;;;12.47;;
13415;SDS011;6779;50.150;8.680;2024-03-22T08:55:35;17.53;;;11.73;;
13415;SDS011;6779;50.150;8.680;2024-03-22T08:58:00;19.17;;;12.23;;
13415;SDS011;6779;50.150;8.680;2024-03-22T09:00:26;19.70;;;11.63;;
13415;SDS011;6779;50.150;8.680;2024-03-22T09:02:51;21.03;;;12.23;;
13415;SDS011;6779;50.150;8.680;2024-03-22T09:05:17;19.27;;;12.97;;
13415;SDS011;6779;50.150;8.680;2024-03-22T09:07:43;18.07;;;11.00;;
13415;SDS011;6779;50.150;8.680;2024-03-22T09:10:08;13.00;;;9.80;;
13415;SDS011;6779;50.150;8.680;2024-03-22T09:12:34;17.83;;;11.30;;
13415;SDS011;6779;50.150;8.680;2024-03-22T09:14:59;19.47;;;10.57;;
13415;SDS011;6779;50.150;8.680;2024-03-22T09:17:25;14.53;;;10.53;;
13415;SDS011;6779;50.150;8.680;2024-03-22T09:19:51;18.23;;;10.27;;
13415;SDS011;6779;50.150;8.680;2024-03-22T09:22:16;17.33;;;10.53;;
13415;SDS011;6779;50.150;8.680;2024-03-22T09:24:41;13.87;;;9.73;;
13415;SDS011;6779;50.150;8.680;2024-03-22T09:27:07;16.50;;;10.47;;
13415;SDS011;6779;50.150;8.680;2024-03-22T09:29:38;14.27;;;10.30;;
13415;SDS011;6779;50.150;8.680;2024-03-22T09:32:03;14.97;;;10.10;;
13415;SDS011;6779;50.150;8.680;2024-03-22T09:34:29;13.70;;;9.83;;
13415;SDS011;6779;50.150;8.680;2024-03-22T09:36:54;15.47;;;10.37;;
13415;SDS011;6779;50.150;8.680;2024-03-22T09:39:21;12.20;;;9.17;;
13415;SDS011;6779;50.150;8.680;2024-03-22T09:41:46;12.10;;;9.10;;
13415;SDS011;6779;50.150;8.680;2024-03-22T09:44:12;13.23;;;9.10;;
13415;SDS011;6779;50.150;8.680;2024-03-22T09:46:39;13.57;;;9.33;;
13415;SDS011;6779;50.150;8.680;2024-03-22T09:49:05;15.87;;;9.93;;
13415;SDS011;6779;50.150;8.680;2024-03-22T09:51:31;12.00;;;9.23;;
13415;SDS011;6779;50.150;8.680;2024-03-22T09:53:56;13.50;;;9.87;;
13415;SDS011;6779;50.150;8.680;2024-03-22T09:56:22;12.33;;;8.57;;
13415;SDS011;6779;50.150;8.680;2024-03-22T09:58:49;16.10;;;10.90;;
13415;SDS011;6779;50.150;8.680;2024-03-22T10:01:14;12.97;;;9.10;;
13415;SDS011;6779;50.150;8.680;2024-03-22T10:03:40;14.67;;;9.87;;
13415;SDS011;6779;50.150;8.680;2024-03-22T10:06:06;13.83;;;9.23;;
13415;SDS011;6779;50.150;8.680;2024-03-22T10:08:31;15.00;;;9.30;;
13415;SDS011;6779;50.150;8.680;2024-03-22T10:10:57;13.33;;;8.73;;
13415;SDS011;6779;50.150;8.680;2024-03-22T10:13:22;12.03;;;8.47;;
13415;SDS011;6779;50.150;8.680;2024-03-22T10:15:47;13.60;;;9.23;;
13415;SDS011;6779;50.150;8.680;2024-03-22T10:18:14;9.47;;;7.90;;
13415;SDS011;6779;50.150;8.680;2024-03-22T10:20:39;10.37;;;8.40;;
13415;SDS011;6779;50.150;8.680;2024-03-22T10:23:05;11.20;;;8.20;;
13415;SDS011;6779;50.150;8.680;2024-03-22T10:25:32;11.03;;;8.20;;
13415;SDS011;6779;50.150;8.680;2024-03-22T10:27:58;12.20;;;8.53;;
13415;SDS011;6779;50.150;8.680;2024-03-22T10:30:24;10.90;;;7.97;;
13415;SDS011;6779;50.150;8.680;2024-03-22T10:32:50;13.53;;;8.63;;
13415;SDS011;6779;50.150;8.680;2024-03-22T10:35:15;11.30;;;7.20;;
13415;SDS011;6779;50.150;8.680;2024-03-22T10:37:41;9.60;;;7.20;;
13415;SDS011;6779;50.150;8.680;2024-03-22T10:40:07;9.87;;;7.47;;
13415;SDS011;6779;50.150;8.680;2024-03-22T10:42:40;11.17;;;7.60;;
13415;SDS011;6779;50.150;8.680;2024-03-22T10:45:06;10.07;;;7.73;;
13415;SDS011;6779;50.150;8.680;2024-03-22T10:47:36;9.33;;;7.87;;
13415;SDS011;6779;50.150;8.680;2024-03-22T10:50:09;10.23;;;7.77;;
13415;SDS011;6779;50.150;8.680;2024-03-22T10:55:38;11.07;;;7.33;;
13415;SDS011;6779;50.150;8.680;2024-03-22T10:58:07;9.93;;;6.90;;
13415;SDS011;6779;50.150;8.680;2024-03-22T11:00:41;8.67;;;7.00;;
13415;SDS011;6779;50.150;8.680;2024-03-22T11:03:08;9.47;;;7.40;;
13415;SDS011;6779;50.150;8.680;2024-03-22T11:05:33;8.83;;;7.27;;
13415;SDS011;6779;50.150;8.680;2024-03-22T11:08:02;8.53;;;7.20;;
13415;SDS011;6779;50.150;8.680;2024-03-22T11:10:34;8.60;;;6.73;;
13415;SDS011;6779;50.150;8.680;2024-03-22T11:13:04;8.63;;;6.37;;
13415;SDS011;6779;50.150;8.680;2024-03-22T11:15:30;8.17;;;6.73;;
13415;SDS011;6779;50.150;8.680;2024-03-22T11:17:55;9.13;;;7.17;;
13415;SDS011;6779;50.150;8.680;2024-03-22T11:20:21;12.87;;;8.23;;
13415;SDS011;6779;50.150;8.680;2024-03-22T11:22:46;11.33;;;7.30;;
13415;SDS011;6779;50.150;8.680;2024-03-22T11:25:12;9.40;;;7.30;;
13415;SDS011;6779;50.150;8.680;2024-03-22T11:27:37;11.33;;;7.70;;
13415;SDS011;6779;50.150;8.680;2024-03-22T11:30:02;10.83;;;7.30;;
13415;SDS011;6779;50.150;8.680;2024-03-22T11:32:28;10.33;;;7.40;;
13415;SDS011;6779;50.150;8.680;2024-03-22T11:34:54;13.00;;;8.27;;
13415;SDS011;6779;50.150;8.680;2024-03-22T11:37:19;10.83;;;8.17;;
13415;SDS011;6779;50.150;8.680;2024-03-22T11:39:45;10.10;;;7.80;;
13415;SDS011;6779;50.150;8.680;2024-03-22T11:42:10;9.90;;;7.67;;
13415;SDS011;6779;50.150;8.680;2024-03-22T11:44:36;9.03;;;7.40;;
13415;SDS011;6779;50.150;8.680;2024-03-22T11:47:03;9.80;;;7.87;;
13415;SDS011;6779;50.150;8.680;2024-03-22T11:49:29;10.50;;;8.17;;
13415;SDS011;6779;50.150;8.680;2024-03-22T11:51:55;10.97;;;8.67;;
13415;SDS011;6779;50.150;8.680;2024-03-22T11:54:21;12.77;;;8.63;;
13415;SDS011;6779;50.150;8.680;2024-03-22T11:56:47;10.47;;;8.17;;
13415;SDS011;6779;50.150;8.680;2024-03-22T11:59:12;12.60;;;8.27;;
13415;SDS011;6779;50.150;8.680;2024-03-22T12:01:37;12.60;;;9.53;;
13415;SDS011;6779;50.150;8.680;2024-03-22T12:04:03;13.33;;;9.33;;
13415;SDS011;6779;50.150;8.680;2024-03-22T12:06:29;13.10;;;9.10;;
13415;SDS011;6779;50.150;8.680;2024-03-22T12:08:54;13.93;;;10.03;;
13415;SDS011;6779;50.150;8.680;2024-03-22T12:11:20;10.73;;;8.40;;
13415;SDS011;6779;50.150;8.680;2024-03-22T12:13:46;11.30;;;8.90;;
13415;SDS011;6779;50.150;8.680;2024-03-22T12:16:11;13.70;;;10.17;;
13415;SDS011;6779;50.150;8.680;2024-03-22T12:18:36;15.23;;;9.87;;
13415;SDS011;6779;50.150;8.680;2024-03-22T12:21:02;11.63;;;8.97;;
13415;SDS011;6779;50.150;8.680;2024-03-22T12:23:27;12.20;;;9.60;;
13415;SDS011;6779;50.150;8.680;2024-03-22T12:25:52;14.13;;;9.70;;
13415;SDS011;6779;50.150;8.680;2024-03-22T12:28:18;12.13;;;9.70;;
13415;SDS011;6779;50.150;8.680;2024-03-22T12:30:45;12.60;;;9.40;;
13415;SDS011;6779;50.150;8.680;2024-03-22T12:33:11;12.73;;;9.73;;
13415;SDS011;6779;50.150;8.680;2024-03-22T12:35:36;13.67;;;8.57;;
13415;SDS011;6779;50.150;8.680;2024-03-22T12:38:04;12.10;;;8.93;;
13415;SDS011;6779;50.150;8.680;2024-03-22T12:40:29;12.43;;;9.50;;
13415;SDS011;6779;50.150;8.680;2024-03-22T12:42:55;11.73;;;9.47;;
13415;SDS011;6779;50.150;8.680;2024-03-22T12:45:20;15.10;;;10.17;;
13415;SDS011;6779;50.150;8.680;2024-03-22T12:47:45;15.90;;;10.90;;
13415;SDS011;6779;50.150;8.680;2024-03-22T12:50:11;15.70;;;10.17;;
13415;SDS011;6779;50.150;8.680;2024-03-22T12:52:38;14.83;;;10.13;;
13415;SDS011;6779;50.150;8.680;2024-03-22T12:55:03;12.97;;;9.20;;
13415;SDS011;6779;50.150;8.680;2024-03-22T12:57:29;14.57;;;9.73;;
13415;SDS011;6779;50.150;8.680;2024-03-22T12:59:54;14.80;;;10.13;;
13415;SDS011;6779;50.150;8.680;2024-03-22T13:02:20;12.03;;;9.27;;
13415;SDS011;6779;50.150;8.680;2024-03-22T13:04:45;14.27;;;10.00;;
13415;SDS011;6779;50.150;8.680;2024-03-22T13:07:10;14.77;;;9.77;;
13415;SDS011;6779;50.150;8.680;2024-03-22T13:09:36;15.63;;;9.67;;
13415;SDS011;6779;50.150;8.680;2024-03-22T13:12:01;16.00;;;10.63;;
13415;SDS011;6779;50.150;8.680;2024-03-22T13:14:27;13.73;;;10.20;;
13415;SDS011;6779;50.150;8.680;2024-03-22T13:16:53;12.83;;;10.43;;
13415;SDS011;6779;50.150;8.680;2024-03-22T13:19:18;14.40;;;11.10;;
13415;SDS011;6779;50.150;8.680;2024-03-22T13:21:43;15.23;;;10.67;;
13415;SDS011;6779;50.150;8.680;2024-03-22T13:24:12;14.70;;;9.53;;
13415;SDS011;6779;50.150;8.680;2024-03-22T13:26:38;11.97;;;8.80;;
13415;SDS011;6779;50.150;8.680;2024-03-22T13:29:03;12.30;;;10.23;;
13415;SDS011;6779;50.150;8.680;2024-03-22T13:31:28;10.60;;;8.10;;
13415;SDS011;6779;50.150;8.680;2024-03-22T13:33:54;13.27;;;9.40;;
13415;SDS011;6779;50.150;8.680;2024-03-22T13:36:19;17.87;;;10.23;;
13415;SDS011;6779;50.150;8.680;2024-03-22T13:38:44;11.43;;;9.50;;
13415;SDS011;6779;50.150;8.680;2024-03-22T13:41:09;12.53;;;9.43;;
13415;SDS011;6779;50.150;8.680;2024-03-22T13:43:35;17.87;;;10.00;;
13415;SDS011;6779;50.150;8.680;2024-03-22T13:46:02;13.17;;;10.20;;
13415;SDS011;6779;50.150;8.680;2024-03-22T13:48:27;13.23;;;9.80;;
13415;SDS011;6779;50.150;8.680;2024-03-22T13:50:56;14.73;;;10.43;;
13415;SDS011;6779;50.150;8.680;2024-03-22T13:53:22;13.30;;;9.63;;
13415;SDS011;6779;50.150;8.680;2024-03-22T13:55:48;12.30;;;10.50;;
13415;SDS011;6779;50.150;8.680;2024-03-22T13:58:14;13.47;;;9.50;;
13415;SDS011;6779;50.150;8.680;2024-03-22T14:00:40;15.07;;;10.10;;
13415;SDS011;6779;50.150;8.680;2024-03-22T14:03:05;13.10;;;9.70;;
13415;SDS011;6779;50.150;8.680;2024-03-22T14:05:30;13.77;;;9.60;;
13415;SDS011;6779;50.150;8.680;2024-03-22T14:07:56;15.23;;;10.57;;
13415;SDS011;6779;50.150;8.680;2024-03-22T14:10:22;16.20;;;9.83;;
13415;SDS011;6779;50.150;8.680;2024-03-22T14:12:48;14.87;;;9.83;;
13415;SDS011;6779;50.150;8.680;2024-03-22T14:15:14;12.70;;;9.50;;
13415;SDS011;6779;50.150;8.680;2024-03-22T14:17:39;12.80;;;10.37;;
13415;SDS011;6779;50.150;8.680;2024-03-22T14:20:05;14.43;;;9.77;;
13415;SDS011;6779;50.150;8.680;2024-03-22T14:22:36;14.57;;;10.17;;
13415;SDS011;6779;50.150;8.680;2024-03-22T14:25:02;16.87;;;10.07;;
13415;SDS011;6779;50.150;8.680;2024-03-22T14:27:28;15.53;;;9.93;;
13415;SDS011;6779;50.150;8.680;2024-03-22T14:29:53;15.13;;;10.37;;
13415;SDS011;6779;50.150;8.680;2024-03-22T14:32:19;16.57;;;9.90;;